Time;durP1;ratioP1;P1;durP2;ratioP2;P2;SDS_P1;SDS_P2;PMS_P1;PMS_P2;Temp;Humidity;BMP_temperature;BMP_pressure;BME280_temperature;BME280_humidity;BME280_pressure;Samples;Min_cycle;Max_cycle;Signal;HPM_P1;HPM_P2
2023/05/01 00:01:18;;;;;;;;;;;;;;;31.69;62.56;100812.88;5115398;27;70283;-40
2023/05/01 00:03:48;;;;;;;;;;;;;;;31.68;62.79;100811.22;5125158;27;66895;-39
2023/05/01 00:06:19;;;;;;;;;;;;;;;31.71;62.62;100816.22;5120767;27;70180;-38
2023/05/01 00:08:49;;;;;;;;;;;;;;;31.69;62.53;100818.31;5129358;27;66685;-40
2023/05/01 00:11:19;;;;;;;;;;;;;;;31.70;62.76;100817.25;5123392;27;70155;-39
2023/05/01 00:13:50;;;;;;;;;;;;;;;31.70;62.42;100825.38;5134549;27;67867;-39
2023/05/01 00:16:20;;;;;;;;;;;;;;;31.70;62.81;100828.09;5116962;27;70401;-38
2023/05/01 00:18:51;;;;;;;;;;;;;;;31.69;62.33;100826.44;5116873;27;66816;-39
2023/05/01 00:21:21;;;;;;;;;;;;;;;31.71;62.72;100837.91;5123754;27;70566;-39
2023/05/01 00:23:51;;;;;;;;;;;;;;;31.71;62.74;100841.44;5128539;27;66694;-39
2023/05/01 00:26:22;;;;;;;;;;;;;;;31.70;62.84;100837.06;5124634;27;70496;-40
2023/05/01 00:28:53;;;;;;;;;;;;;;;31.72;63.31;100840.38;5126364;27;65433;-38
2023/05/01 00:31:26;;;;;;;;;;;;;;;31.75;62.93;100842.63;5094998;27;69176;-38
2023/05/01 00:33:56;;;;;;;;;;;;;;;31.74;63.28;100843.69;5120297;27;66366;-38
2023/05/01 00:36:27;;;;;;;;;;;;;;;31.76;63.03;100854.31;5086478;27;69137;-39
2023/05/01 00:38:57;;;;;;;;;;;;;;;31.76;63.32;100857.00;5125378;27;66298;-39
2023/05/01 00:41:27;;;;;;;;;;;;;;;31.76;63.20;100857.00;5115145;27;70675;-39
2023/05/01 00:43:58;;;;;;;;;;;;;;;31.76;62.90;100862.44;5106669;27;66565;-39
2023/05/01 00:46:29;;;;;;;;;;;;;;;31.77;63.02;100872.25;5132011;27;69840;-39
2023/05/01 00:49:00;;;;;;;;;;;;;;;31.81;63.23;100887.00;5103360;27;65911;-41
2023/05/01 00:51:31;;;;;;;;;;;;;;;31.83;63.22;100885.72;5123037;27;69351;-39
2023/05/01 00:54:02;;;;;;;;;;;;;;;31.86;63.27;100884.44;5118515;27;67160;-40
2023/05/01 00:56:32;;;;;;;;;;;;;;;31.89;63.47;100883.16;5125273;27;69358;-39
2023/05/01 00:59:03;;;;;;;;;;;;;;;31.89;63.13;100886.69;5121926;27;66904;-41
2023/05/01 01:01:34;;;;;;;;;;;;;;;31.89;63.33;100884.00;5103692;27;71411;-39
2023/05/01 01:04:08;;;;;;;;;;;;;;;31.89;63.72;100884.00;5107866;27;58601;-39
2023/05/01 01:06:38;;;;;;;;;;;;;;;31.91;64.01;100892.78;5107766;27;70580;-40
2023/05/01 01:09:20;;;;;;;;;;;;;;;31.93;64.01;100887.94;5129178;27;66453;-39
2023/05/01 01:12:10;;;;;;;;;;;;;;;31.94;64.00;100895.03;5097649;27;69910;-38
2023/05/01 01:14:57;;;;;;;;;;;;;;;31.96;63.55;100895.63;5131213;27;67543;-38
2023/05/01 01:17:46;;;;;;;;;;;;;;;31.96;64.02;100890.19;5120969;27;69490;-39
2023/05/01 01:20:17;;;;;;;;;;;;;;;32.00;63.90;100896.00;5109965;27;66202;-40
2023/05/01 01:22:51;;;;;;;;;;;;;;;32.00;63.94;100902.25;5124952;27;69630;-40
2023/05/01 01:25:35;;;;;;;;;;;;;;;32.02;63.85;100913.72;5112002;27;66131;-40
2023/05/01 01:28:05;;;;;;;;;;;;;;;32.04;63.73;100914.31;5119017;27;70327;-40
2023/05/01 01:30:47;;;;;;;;;;;;;;;32.06;63.47;100911.34;5103587;27;66732;-39
2023/05/01 01:33:38;;;;;;;;;;;;;;;31.99;63.70;100895.19;5107859;27;69233;-40
2023/05/01 01:36:16;;;;;;;;;;;;;;;32.04;63.67;100898.03;5106288;27;66942;-40
2023/05/01 01:38:53;;;;;;;;;;;;;;;32.10;63.65;100906.31;5124961;27;69326;-40
2023/05/01 01:41:29;;;;;;;;;;;;;;;32.11;63.10;100899.84;5090398;27;66624;-40
2023/05/01 01:44:19;;;;;;;;;;;;;;;32.11;63.28;100900.66;5099856;27;69078;-40
2023/05/01 01:46:52;;;;;;;;;;;;;;;32.13;63.02;100905.88;5124555;27;66079;-39
2023/05/01 01:49:25;;;;;;;;;;;;;;;32.13;62.69;100901.25;5100945;27;69973;-39
2023/05/01 01:51:58;;;;;;;;;;;;;;;32.17;62.68;100902.44;5106288;27;65214;-39
2023/05/01 01:54:40;;;;;;;;;;;;;;;32.19;62.47;100911.19;5087077;27;69829;-39
2023/05/01 01:57:12;;;;;;;;;;;;;;;32.20;62.17;100907.41;5119569;27;66684;-39
2023/05/01 01:59:43;;;;;;;;;;;;;;;32.21;62.04;100902.84;5106847;27;70703;-41
2023/05/01 02:02:15;;;;;;;;;;;;;;;32.24;61.80;100913.22;5105288;27;65918;-39
2023/05/01 02:04:47;;;;;;;;;;;;;;;32.25;62.00;100921.13;5120869;27;69514;-40
2023/05/01 02:07:18;;;;;;;;;;;;;;;32.26;61.62;100908.38;5124200;27;66548;-42
2023/05/01 02:09:49;;;;;;;;;;;;;;;32.28;61.75;100903.56;5102928;27;71264;-40
2023/05/01 02:12:20;;;;;;;;;;;;;;;32.30;61.33;100906.88;5100526;27;65220;-41
2023/05/01 02:14:51;;;;;;;;;;;;;;;32.32;61.26;100902.06;5105951;27;70327;-41
2023/05/01 02:17:21;;;;;;;;;;;;;;;32.34;60.84;100896.38;5099319;27;65624;-39
2023/05/01 02:19:53;;;;;;;;;;;;;;;32.34;60.83;100894.50;5105176;27;69831;-40
2023/05/01 02:22:25;;;;;;;;;;;;;;;32.35;60.63;100890.75;5119445;27;66180;-40
2023/05/01 02:24:57;;;;;;;;;;;;;;;32.38;60.48;100893.00;5105088;27;70443;-40
2023/05/01 02:27:33;;;;;;;;;;;;;;;32.38;60.39;100890.28;5099550;27;66765;-38
2023/05/01 02:30:04;;;;;;;;;;;;;;;32.38;57.97;100887.56;5129126;27;70482;-40
2023/05/01 02:32:35;;;;;;;;;;;;;;;32.39;58.23;100889.22;5107634;27;65826;-39
2023/05/01 02:35:06;;;;;;;;;;;;;;;32.41;58.47;100895.25;5107145;27;69082;-40
2023/05/01 02:37:37;;;;;;;;;;;;;;;32.47;58.26;100891.63;5116952;27;66097;-40
2023/05/01 02:40:08;;;;;;;;;;;;;;;32.47;58.26;100888.91;5106736;27;69272;-41
2023/05/01 02:42:39;;;;;;;;;;;;;;;32.53;58.23;100886.34;5111389;27;66778;-43
2023/05/01 02:45:10;;;;;;;;;;;;;;;32.58;58.23;100879.16;5119914;27;70173;-41
2023/05/01 02:47:42;;;;;;;;;;;;;;;32.65;57.68;100887.19;5124319;27;66452;-37
2023/05/01 02:50:14;;;;;;;;;;;;;;;32.68;56.90;100874.00;5116739;27;70174;-37
2023/05/01 02:52:45;;;;;;;;;;;;;;;32.72;55.99;100877.06;5100967;27;66748;-38
2023/05/01 02:55:36;;;;;;;;;;;;;;;32.78;56.06;100878.84;5094726;27;69731;-39
2023/05/01 02:58:06;;;;;;;;;;;;;;;32.83;55.64;100873.53;5125487;27;66795;-40
2023/05/01 03:00:36;;;;;;;;;;;;;;;32.84;55.50;100867.03;5129715;27;70976;-39
2023/05/01 03:03:06;;;;;;;;;;;;;;;32.89;55.17;100877.22;5102926;27;64783;-39
2023/05/01 03:05:37;;;;;;;;;;;;;;;32.93;55.17;100876.50;5114528;27;69870;-39
2023/05/01 03:08:10;;;;;;;;;;;;;;;32.94;55.17;100869.19;5124799;27;66870;-39
2023/05/01 03:10:43;;;;;;;;;;;;;;;32.97;55.29;100870.59;5092789;27;69736;-41
2023/05/01 03:13:13;;;;;;;;;;;;;;;32.63;54.93;100803.25;5097783;27;66944;-40
2023/05/01 03:15:44;;;;;;;;;;;;;;;33.13;54.64;100867.22;5107840;27;70380;-39
2023/05/01 03:18:14;;;;;;;;;;;;;;;33.19;54.83;100871.72;5103835;27;66211;-43
2023/05/01 03:21:00;;;;;;;;;;;;;;;33.20;55.15;100865.19;5105027;27;70367;-40
2023/05/01 03:23:31;;;;;;;;;;;;;;;33.25;54.57;100865.31;5107237;27;65471;-39
2023/05/01 03:26:02;;;;;;;;;;;;;;;33.30;54.71;100868.16;5113116;27;70003;-41
2023/05/01 03:28:32;;;;;;;;;;;;;;;33.37;52.85;100871.56;5126172;27;66338;-42
2023/05/01 03:31:03;;;;;;;;;;;;;;;33.36;52.06;100872.63;5097499;27;70412;-42
2023/05/01 03:33:34;;;;;;;;;;;;;;;33.38;51.21;100875.97;5105423;27;66786;-41
2023/05/01 03:36:05;;;;;;;;;;;;;;;33.46;52.04;100882.94;5099883;27;70279;-39
2023/05/01 03:38:36;;;;;;;;;;;;;;;33.49;51.41;100865.28;5108657;27;67211;-40
2023/05/01 03:41:11;;;;;;;;;;;;;;;33.55;51.26;100864.38;5117513;27;71372;-40
2023/05/01 03:43:42;;;;;;;;;;;;;;;33.57;50.71;100859.50;5132678;27;66631;-40
2023/05/01 03:46:23;;;;;;;;;;;;;;;33.60;50.39;100856.34;5102210;27;70475;-39
2023/05/01 03:48:54;;;;;;;;;;;;;;;33.65;50.53;100853.72;5087276;27;66484;-42
2023/05/01 03:51:26;;;;;;;;;;;;;;;33.70;50.84;100859.25;5105361;27;69445;-39
2023/05/01 03:53:57;;;;;;;;;;;;;;;33.71;50.10;100847.31;5104985;27;66329;-40
2023/05/01 03:56:35;;;;;;;;;;;;;;;33.81;49.99;100852.97;5102115;27;70365;-40
2023/05/01 03:59:06;;;;;;;;;;;;;;;33.83;49.78;100849.19;5100957;27;65988;-42
2023/05/01 04:01:38;;;;;;;;;;;;;;;33.88;50.05;100858.28;5126426;27;70582;-40
2023/05/01 04:04:08;;;;;;;;;;;;;;;33.94;49.05;100851.03;5116931;27;66269;-43
2023/05/01 04:06:42;;;;;;;;;;;;;;;33.94;48.39;100845.59;5104393;27;70406;-42
2023/05/01 04:09:12;;;;;;;;;;;;;;;33.95;49.14;100845.34;5082584;27;67340;-41
2023/05/01 04:11:43;;;;;;;;;;;;;;;34.01;48.84;100836.19;5105801;27;68913;-42
2023/05/01 04:14:13;;;;;;;;;;;;;;;34.02;49.44;100831.59;5117145;27;66339;-40
2023/05/01 04:16:43;;;;;;;;;;;;;;;33.97;49.72;100823.34;5103639;27;71004;-41
2023/05/01 04:19:14;;;;;;;;;;;;;;;33.98;50.18;100822.25;5103268;27;67801;-42
2023/05/01 04:21:47;;;;;;;;;;;;;;;33.95;50.60;100815.41;5103989;27;70292;-42
2023/05/01 04:24:17;;;;;;;;;;;;;;;33.95;51.11;100814.59;5118167;27;66350;-40
2023/05/01 04:26:48;;;;;;;;;;;;;;;33.94;51.15;100811.03;5121136;27;69895;-42
2023/05/01 04:29:18;;;;;;;;;;;;;;;34.02;51.26;100815.28;5123515;27;66849;-41
2023/05/01 04:31:49;;;;;;;;;;;;;;;34.08;51.63;100814.34;5086107;27;69976;-41
2023/05/01 04:34:20;;;;;;;;;;;;;;;34.12;51.20;100810.03;5110958;27;66457;-40
2023/05/01 04:36:50;;;;;;;;;;;;;;;34.15;51.00;100804.09;5122810;27;70451;-44
2023/05/01 04:39:20;;;;;;;;;;;;;;;34.17;50.99;100785.63;5112079;27;66957;-40
2023/05/01 04:41:51;;;;;;;;;;;;;;;34.20;50.74;100801.47;5111529;27;70597;-40
2023/05/01 04:44:22;;;;;;;;;;;;;;;34.22;50.86;100787.63;5110563;27;66294;-39
2023/05/01 04:46:52;;;;;;;;;;;;;;;34.23;50.57;100781.91;5110785;27;70318;-39
2023/05/01 04:49:23;;;;;;;;;;;;;;;34.25;50.49;100778.97;5115020;27;66548;-39
2023/05/01 04:51:53;;;;;;;;;;;;;;;34.27;50.66;100774.09;5089397;27;70506;-40
2023/05/01 04:54:26;;;;;;;;;;;;;;;34.28;50.48;100764.84;5106571;27;66102;-42
2023/05/01 04:56:56;;;;;;;;;;;;;;;34.30;50.35;100767.31;5105307;27;69514;-41
2023/05/01 04:59:28;;;;;;;;;;;;;;;34.31;50.17;100758.09;5105585;27;65647;-41
2023/05/01 05:01:58;;;;;;;;;;;;;;;34.33;50.50;100753.25;5106209;27;70593;-40
2023/05/01 05:04:29;;;;;;;;;;;;;;;34.35;50.47;100753.78;5124280;27;66925;-41
2023/05/01 05:06:59;;;;;;;;;;;;;;;34.35;50.26;100743.75;5103352;27;70069;-40
2023/05/01 05:09:48;;;;;;;;;;;;;;;34.38;50.58;100737.81;5100603;27;66282;-40
2023/05/01 05:12:18;;;;;;;;;;;;;;;34.37;50.27;100733.41;5101019;27;70706;-40
2023/05/01 05:14:48;;;;;;;;;;;;;;;34.41;50.52;100725.59;5123234;27;66113;-41
2023/05/01 05:17:19;;;;;;;;;;;;;;;34.43;50.28;100726.16;5117358;27;69928;-39
2023/05/01 05:19:50;;;;;;;;;;;;;;;34.44;50.22;100716.94;5091341;27;65509;-39
2023/05/01 05:22:21;;;;;;;;;;;;;;;34.46;49.75;100706.59;5056528;27;68427;-41
2023/05/01 05:25:15;;;;;;;;;;;;;;;34.49;49.72;100697.91;5115964;27;65145;-40
2023/05/01 05:27:45;;;;;;;;;;;;;;;34.51;49.47;100703.13;5113754;27;69720;-41
2023/05/01 05:30:15;;;;;;;;;;;;;;;34.51;49.25;100698.50;5107323;27;66998;-41
2023/05/01 05:32:46;;;;;;;;;;;;;;;34.55;49.29;100691.50;5109605;27;69671;-40
2023/05/01 05:35:17;;;;;;;;;;;;;;;34.56;48.60;100685.00;5136772;27;66449;-40
2023/05/01 05:37:48;;;;;;;;;;;;;;;34.58;48.43;100671.94;5117490;27;70116;-40
2023/05/01 05:40:18;;;;;;;;;;;;;;;34.62;48.52;100677.72;5139097;27;66123;-40
2023/05/01 05:42:57;;;;;;;;;;;;;;;34.64;48.67;100668.22;5114673;27;70618;-39
2023/05/01 05:45:32;;;;;;;;;;;;;;;34.67;48.23;100664.16;5131493;27;66804;-42
2023/05/01 05:48:03;;;;;;;;;;;;;;;34.69;47.97;100657.41;5120105;27;69862;-40
2023/05/01 05:50:39;;;;;;;;;;;;;;;34.72;48.05;100649.81;5110620;27;66733;-41
2023/05/01 05:53:12;;;;;;;;;;;;;;;34.73;47.96;100646.00;5102928;27;69979;-40
2023/05/01 05:55:44;;;;;;;;;;;;;;;34.76;47.90;100634.59;5107179;27;66526;-39
2023/05/01 05:58:18;;;;;;;;;;;;;;;34.80;47.73;100630.25;5109759;27;69779;-40
2023/05/01 06:00:51;;;;;;;;;;;;;;;34.82;47.27;100623.47;5096313;27;65500;-39
2023/05/01 06:03:22;;;;;;;;;;;;;;;34.84;47.75;100615.06;5110682;27;70119;-40
2023/05/01 06:05:55;;;;;;;;;;;;;;;34.87;46.92;100614.56;5123187;27;65211;-41
2023/05/01 06:08:26;;;;;;;;;;;;;;;34.90;47.24;100614.03;5127438;27;70131;-41
2023/05/01 06:10:57;;;;;;;;;;;;;;;34.93;46.52;100605.34;5132442;27;67009;-40
2023/05/01 06:13:28;;;;;;;;;;;;;;;34.98;46.79;100605.44;5108548;27;69747;-40
2023/05/01 06:15:58;;;;;;;;;;;;;;;35.00;46.26;100597.00;5120916;27;65638;-39
2023/05/01 06:18:29;;;;;;;;;;;;;;;35.02;46.10;100587.50;5107118;27;69745;-39
2023/05/01 06:21:00;;;;;;;;;;;;;;;35.05;46.12;100577.97;5092021;27;65806;-41
2023/05/01 06:23:32;;;;;;;;;;;;;;;35.09;45.83;100581.88;5115700;27;70488;-40
2023/05/01 06:26:25;;;;;;;;;;;;;;;35.12;46.33;100568.53;5115425;27;66242;-43
2023/05/01 06:28:55;;;;;;;;;;;;;;;35.16;45.84;100568.88;5119178;27;69270;-42
2023/05/01 06:31:26;;;;;;;;;;;;;;;35.19;45.75;100572.94;5125597;27;66071;-40
2023/05/01 06:33:57;;;;;;;;;;;;;;;35.21;45.71;100555.25;5114338;27;71267;-39
2023/05/01 06:36:46;;;;;;;;;;;;;;;35.24;45.71;100553.94;5129233;27;66095;-39
2023/05/01 06:39:16;;;;;;;;;;;;;;;35.27;45.51;100550.69;5111553;27;69744;-40
2023/05/01 06:41:47;;;;;;;;;;;;;;;35.27;45.34;100537.03;5119733;27;67044;-40
2023/05/01 06:44:25;;;;;;;;;;;;;;;35.33;44.99;100536.03;5111534;27;70512;-40
2023/05/01 06:46:57;;;;;;;;;;;;;;;35.35;45.14;100533.84;5103515;27;67271;-41
2023/05/01 06:49:27;;;;;;;;;;;;;;;35.37;45.12;100526.25;5132364;27;69925;-40
2023/05/01 06:51:58;;;;;;;;;;;;;;;35.40;44.79;100525.72;5138817;27;66222;-39
2023/05/01 06:54:28;;;;;;;;;;;;;;;35.43;44.38;100522.47;5105568;27;70395;-40
2023/05/01 06:56:58;;;;;;;;;;;;;;;35.46;44.06;100519.22;5114846;27;66684;-39
2023/05/01 06:59:28;;;;;;;;;;;;;;;35.48;44.08;100519.78;5107204;27;70149;-42
2023/05/01 07:01:59;;;;;;;;;;;;;;;35.52;44.16;100512.75;5119176;27;67027;-40
2023/05/01 07:04:30;;;;;;;;;;;;;;;35.54;44.61;100502.38;5107740;27;70034;-41
2023/05/01 07:07:02;;;;;;;;;;;;;;;35.55;43.93;100512.22;5117981;27;66728;-41
2023/05/01 07:09:32;;;;;;;;;;;;;;;35.60;44.35;100507.91;5110415;27;69572;-40
2023/05/01 07:12:03;;;;;;;;;;;;;;;35.62;44.09;100506.56;5105565;27;67103;-40
2023/05/01 07:14:36;;;;;;;;;;;;;;;35.64;44.39;100492.66;5100435;27;70793;-40
2023/05/01 07:17:07;;;;;;;;;;;;;;;35.67;44.64;100503.06;5107963;27;66302;-41
2023/05/01 07:19:38;;;;;;;;;;;;;;;35.70;44.85;100497.06;5109454;27;69362;-39
2023/05/01 07:22:08;;;;;;;;;;;;;;;35.73;44.30;100491.09;5106598;27;65561;-40
2023/05/01 07:24:38;;;;;;;;;;;;;;;35.73;44.73;100497.34;5110568;27;70311;-42
2023/05/01 07:27:09;;;;;;;;;;;;;;;35.76;44.26;100490.56;5107036;27;66955;-42
2023/05/01 07:29:39;;;;;;;;;;;;;;;35.78;44.73;100493.84;5104993;27;70087;-42
2023/05/01 07:32:10;;;;;;;;;;;;;;;35.81;44.25;100487.84;5100337;27;66735;-41
2023/05/01 07:34:40;;;;;;;;;;;;;;;35.81;44.27;100482.41;5109467;27;69006;-40
2023/05/01 07:37:11;;;;;;;;;;;;;;;35.83;44.82;100473.94;5104134;27;66859;-40
2023/05/01 07:39:41;;;;;;;;;;;;;;;35.85;44.95;100478.03;5108177;27;69117;-42
2023/05/01 07:42:11;;;;;;;;;;;;;;;35.88;44.60;100477.50;5105001;27;65185;-42
2023/05/01 07:44:42;;;;;;;;;;;;;;;35.91;44.38;100476.16;5106059;27;69741;-43
2023/05/01 07:47:12;;;;;;;;;;;;;;;35.93;44.67;100479.47;5102293;27;66669;-41
2023/05/01 07:49:42;;;;;;;;;;;;;;;35.94;44.15;100471.03;5104782;27;70394;-41
2023/05/01 07:52:14;;;;;;;;;;;;;;;35.97;42.19;100467.75;5105980;27;66634;-42
2023/05/01 07:54:49;;;;;;;;;;;;;;;35.99;40.20;100462.84;5119450;27;70450;-42
2023/05/01 07:57:22;;;;;;;;;;;;;;;36.01;40.91;100463.41;5109362;27;65494;-40
2023/05/01 07:59:55;;;;;;;;;;;;;;;36.02;41.29;100454.13;5104066;27;69683;-41
2023/05/01 08:02:26;;;;;;;;;;;;;;;36.02;42.03;100451.41;5107337;27;66561;-42
2023/05/01 08:04:57;;;;;;;;;;;;;;;36.03;42.18;100453.03;5104371;27;69654;-42
2023/05/01 08:07:30;;;;;;;;;;;;;;;36.01;42.08;100455.22;5104371;27;66244;-42
2023/05/01 08:10:01;;;;;;;;;;;;;;;36.01;42.55;100452.47;5105838;27;70077;-42
2023/05/01 08:12:31;;;;;;;;;;;;;;;36.02;43.47;100450.56;5112017;27;67266;-43
2023/05/01 08:15:02;;;;;;;;;;;;;;;36.03;43.65;100441.31;5108471;27;69942;-43
2023/05/01 08:17:32;;;;;;;;;;;;;;;36.05;43.81;100446.47;5114957;27;65776;-42
2023/05/01 08:20:03;;;;;;;;;;;;;;;36.06;43.51;100440.00;5103305;27;70004;-41
2023/05/01 08:22:33;;;;;;;;;;;;;;;36.06;44.08;100440.00;5112258;27;66892;-42
2023/05/01 08:25:04;;;;;;;;;;;;;;;36.07;44.27;100436.97;5110932;27;69848;-42
2023/05/01 08:27:34;;;;;;;;;;;;;;;36.09;43.97;100428.53;5100714;27;66011;-42
2023/05/01 08:30:06;;;;;;;;;;;;;;;36.09;44.56;100425.81;5100953;27;69679;-41
2023/05/01 08:32:36;;;;;;;;;;;;;;;36.12;44.69;100428.81;5098050;27;66248;-40
2023/05/01 08:35:06;;;;;;;;;;;;;;;36.12;44.25;100428.00;5110250;27;70787;-40
2023/05/01 08:37:37;;;;;;;;;;;;;;;36.12;44.36;100428.00;5101100;27;66623;-41
2023/05/01 08:40:07;;;;;;;;;;;;;;;36.12;44.55;100422.53;5109425;27;70513;-42
2023/05/01 08:42:38;;;;;;;;;;;;;;;36.12;45.21;100428.00;5101138;27;66569;-41
2023/05/01 08:45:09;;;;;;;;;;;;;;;36.14;44.90;100425.81;5096250;27;71130;-43
2023/05/01 08:47:39;;;;;;;;;;;;;;;36.12;45.41;100425.25;5106419;27;67180;-41
2023/05/01 08:50:12;;;;;;;;;;;;;;;36.13;45.00;100435.91;5105365;27;68914;-39
2023/05/01 08:52:43;;;;;;;;;;;;;;;36.14;45.46;100425.81;5104691;27;66393;-41
2023/05/01 08:55:14;;;;;;;;;;;;;;;36.15;45.59;100430.19;5113999;27;70229;-41
2023/05/01 08:57:45;;;;;;;;;;;;;;;36.14;45.70;100425.81;5126201;27;66186;-40
2023/05/01 09:00:19;;;;;;;;;;;;;;;36.12;45.08;100417.06;5119446;27;70385;-41
2023/05/01 09:02:51;;;;;;;;;;;;;;;36.13;45.28;100414.06;5122448;27;66721;-41
2023/05/01 09:05:21;;;;;;;;;;;;;;;36.12;45.79;100412.44;5081375;27;69761;-40
2023/05/01 09:07:52;;;;;;;;;;;;;;;36.13;45.79;100413.25;5122485;27;66834;-41
2023/05/01 09:10:23;;;;;;;;;;;;;;;36.13;45.97;100408.59;5122835;27;69832;-42
2023/05/01 09:12:56;;;;;;;;;;;;;;;36.13;45.51;100413.25;5120447;27;65673;-41
2023/05/01 09:15:27;;;;;;;;;;;;;;;36.14;46.04;100409.44;5124080;27;70454;-40
2023/05/01 09:17:58;;;;;;;;;;;;;;;36.13;45.98;100415.97;5119075;27;67081;-41
2023/05/01 09:20:36;;;;;;;;;;;;;;;36.13;46.16;100418.69;5122342;27;70190;-41
2023/05/01 09:23:06;;;;;;;;;;;;;;;36.14;45.70;100414.91;5121214;27;66867;-42
2023/05/01 09:25:36;;;;;;;;;;;;;;;36.11;45.69;100407.22;5119235;27;69743;-42
2023/05/01 09:28:07;;;;;;;;;;;;;;;36.15;46.47;100416.53;5120619;27;65888;-41
2023/05/01 09:30:38;;;;;;;;;;;;;;;36.14;46.41;100420.38;5121451;27;70790;-40
2023/05/01 09:33:09;;;;;;;;;;;;;;;36.12;46.11;100422.53;5121291;27;67140;-41
2023/05/01 09:35:53;;;;;;;;;;;;;;;36.13;46.14;100424.97;5121512;27;70149;-41
2023/05/01 09:38:25;;;;;;;;;;;;;;;36.07;47.41;100430.69;5100847;27;66630;-42
2023/05/01 09:41:02;;;;;;;;;;;;;;;36.03;48.41;100439.41;5120633;27;70512;-40
2023/05/01 09:43:33;;;;;;;;;;;;;;;36.07;47.80;100430.69;5123776;27;66056;-39
2023/05/01 09:46:05;;;;;;;;;;;;;;;36.02;48.50;100434.19;5120499;27;69932;-43
2023/05/01 09:48:36;;;;;;;;;;;;;;;36.05;48.43;100439.13;5105001;27;66789;-40
2023/05/01 09:51:19;;;;;;;;;;;;;;;35.99;49.02;100435.53;5104029;27;70743;-42
2023/05/01 09:53:51;;;;;;;;;;;;;;;36.05;48.49;100438.28;5103011;27;65542;-40
2023/05/01 09:56:22;;;;;;;;;;;;;;;36.09;48.91;100448.47;5122167;27;69844;-40
2023/05/01 09:58:53;;;;;;;;;;;;;;;36.08;48.84;100440.53;5124090;27;66700;-40
2023/05/01 10:01:40;;;;;;;;;;;;;;;36.01;50.34;100444.28;5099767;27;69227;-42
2023/05/01 10:04:11;;;;;;;;;;;;;;;36.00;50.27;100448.13;5115312;27;66190;-40
2023/05/01 10:06:42;;;;;;;;;;;;;;;35.93;50.90;100447.53;5119681;27;69872;-40
2023/05/01 10:09:25;;;;;;;;;;;;;;;35.97;51.65;100453.28;5120670;27;66328;-41
2023/05/01 10:11:56;;;;;;;;;;;;;;;36.00;51.02;100450.03;5122429;27;70293;-40
2023/05/01 10:14:28;;;;;;;;;;;;;;;35.96;51.54;100455.19;5119462;27;66236;-41
2023/05/01 10:16:58;;;;;;;;;;;;;;;35.94;51.72;100457.38;5118565;27;69487;-40
2023/05/01 10:19:29;;;;;;;;;;;;;;;35.98;51.01;100447.56;5117237;27;65609;-40
2023/05/01 10:22:00;;;;;;;;;;;;;;;36.00;50.12;100450.84;5122382;27;69384;-40
2023/05/01 10:24:31;;;;;;;;;;;;;;;36.00;49.92;100447.31;5121584;27;65353;-39
2023/05/01 10:27:04;;;;;;;;;;;;;;;35.99;50.41;100449.19;5132737;27;69244;-39
2023/05/01 10:29:37;;;;;;;;;;;;;;;35.99;50.06;100445.63;5116326;27;66120;-40
2023/05/01 10:32:08;;;;;;;;;;;;;;;35.97;50.54;100445.09;5119717;27;70483;-39
2023/05/01 10:34:41;;;;;;;;;;;;;;;35.96;50.65;100447.00;5116061;27;66463;-42
2023/05/01 10:37:38;;;;;;;;;;;;;;;35.93;50.17;100452.97;5126051;27;69404;-40
2023/05/01 10:40:26;;;;;;;;;;;;;;;35.91;50.66;100457.91;5093297;27;66204;-40
2023/05/01 10:43:15;;;;;;;;;;;;;;;35.88;50.47;100469.31;5129928;27;70735;-40
2023/05/01 10:45:48;;;;;;;;;;;;;;;35.85;51.00;100466.31;5131102;27;65228;-39
2023/05/01 10:48:42;;;;;;;;;;;;;;;35.85;50.30;100463.59;5122589;27;69843;-40
2023/05/01 10:51:14;;;;;;;;;;;;;;;35.82;50.99;100461.38;5101016;27;65512;-39
2023/05/01 10:53:46;;;;;;;;;;;;;;;35.80;50.95;100470.66;5108005;27;70296;-40
2023/05/01 10:56:25;;;;;;;;;;;;;;;35.75;50.62;100467.91;5124771;27;66560;-40
2023/05/01 10:58:57;;;;;;;;;;;;;;;35.76;50.96;100474.19;5107083;27;70085;-40
2023/05/01 11:01:33;;;;;;;;;;;;;;;35.74;50.94;100477.16;5125733;27;65370;-42
2023/05/01 11:04:07;;;;;;;;;;;;;;;35.72;50.98;100493.00;5125114;27;69281;-41
2023/05/01 11:06:37;;;;;;;;;;;;;;;35.70;50.60;100486.16;5120469;27;66997;-40
2023/05/01 11:09:26;;;;;;;;;;;;;;;35.67;51.26;100487.50;5133532;27;69659;-39
2023/05/01 11:11:56;;;;;;;;;;;;;;;35.61;51.57;100493.16;5124107;27;67027;-40
2023/05/01 11:14:26;;;;;;;;;;;;;;;35.58;51.89;100491.81;5119091;27;69915;-41
2023/05/01 11:16:56;;;;;;;;;;;;;;;35.56;52.64;100489.31;5122092;27;66401;-39
2023/05/01 11:19:27;;;;;;;;;;;;;;;35.52;52.47;100490.06;5121065;27;69805;-39
2023/05/01 11:21:57;;;;;;;;;;;;;;;35.50;52.41;100497.72;5126049;27;66867;-40
2023/05/01 11:24:34;;;;;;;;;;;;;;;35.50;52.25;100492.25;5120248;27;69843;-40
2023/05/01 11:27:06;;;;;;;;;;;;;;;35.47;54.00;100504.50;5123681;27;67247;-40
2023/05/01 11:29:36;;;;;;;;;;;;;;;35.45;54.56;100506.66;5118639;27;69663;-41
2023/05/01 11:32:08;;;;;;;;;;;;;;;35.45;54.90;100514.03;5127996;27;66690;-41
2023/05/01 11:34:38;;;;;;;;;;;;;;;35.46;53.74;100508.31;5123300;27;70412;-39
2023/05/01 11:37:08;;;;;;;;;;;;;;;35.43;53.19;100514.28;5125253;27;66751;-40
2023/05/01 11:39:45;;;;;;;;;;;;;;;35.46;53.33;100513.75;5121343;27;69749;-40
2023/05/01 11:42:19;;;;;;;;;;;;;;;35.45;52.84;100523.03;5123595;27;66394;-42
2023/05/01 11:45:05;;;;;;;;;;;;;;;35.43;52.82;100527.91;5121175;27;69845;-43
2023/05/01 11:47:36;;;;;;;;;;;;;;;35.43;53.32;100540.75;5121623;27;66180;-40
2023/05/01 11:50:07;;;;;;;;;;;;;;;35.41;52.94;100549.19;5122740;27;71050;-40
2023/05/01 11:52:42;;;;;;;;;;;;;;;35.40;53.86;100555.72;5120454;27;65918;-41
2023/05/01 11:55:12;;;;;;;;;;;;;;;35.39;52.82;100562.25;5105939;27;69898;-40
2023/05/01 11:57:47;;;;;;;;;;;;;;;35.38;52.79;100566.06;5103321;27;65775;-42
2023/05/01 12:00:28;;;;;;;;;;;;;;;35.36;52.94;100579.16;5126578;27;70321;-40
2023/05/01 12:03:00;;;;;;;;;;;;;;;35.34;52.88;100582.13;5087851;27;65492;-41
2023/05/01 12:05:33;;;;;;;;;;;;;;;35.29;52.88;100590.25;5106912;27;70123;-41
2023/05/01 12:08:18;;;;;;;;;;;;;;;35.30;52.94;100596.50;5125723;27;66847;-42
2023/05/01 12:10:54;;;;;;;;;;;;;;;35.28;53.12;100598.69;5109027;27;70654;-41
2023/05/01 12:13:28;;;;;;;;;;;;;;;35.26;52.97;100604.41;5106740;27;66630;-41
2023/05/01 12:16:03;;;;;;;;;;;;;;;35.23;53.07;100607.63;5126442;27;69662;-41
2023/05/01 12:18:34;;;;;;;;;;;;;;;35.21;53.55;100617.16;5100793;27;65514;-40
2023/05/01 12:21:04;;;;;;;;;;;;;;;35.20;53.07;100624.50;5102224;27;70016;-40
2023/05/01 12:23:38;;;;;;;;;;;;;;;35.18;53.17;100631.31;5125588;27;66437;-42
2023/05/01 12:26:26;;;;;;;;;;;;;;;35.18;53.12;100636.75;5117460;27;69418;-40
2023/05/01 12:28:57;;;;;;;;;;;;;;;35.14;53.13;100641.91;5127054;27;66353;-41
2023/05/01 12:31:29;;;;;;;;;;;;;;;35.12;53.10;100639.41;5107134;27;69716;-42
2023/05/01 12:34:00;;;;;;;;;;;;;;;35.09;53.20;100634.47;5123452;27;66813;-40
2023/05/01 12:36:32;;;;;;;;;;;;;;;35.07;53.53;100647.53;5125065;27;69772;-41
2023/05/01 12:39:05;;;;;;;;;;;;;;;35.07;53.02;100652.97;5119818;27;65388;-40
2023/05/01 12:41:39;;;;;;;;;;;;;;;35.03;53.05;100657.28;5101249;27;69639;-41
2023/05/01 12:44:22;;;;;;;;;;;;;;;35.01;53.46;100675.78;5119534;27;66559;-42
2023/05/01 12:46:53;;;;;;;;;;;;;;;34.99;53.58;100675.19;5121509;27;69952;-42
2023/05/01 12:49:24;;;;;;;;;;;;;;;34.99;53.42;100677.94;5103494;27;66216;-40
2023/05/01 12:52:02;;;;;;;;;;;;;;;34.96;53.17;100675.72;5110075;27;69475;-41
2023/05/01 12:54:43;;;;;;;;;;;;;;;34.95;53.58;100684.97;5123190;27;66137;-40
2023/05/01 12:57:15;;;;;;;;;;;;;;;34.93;53.20;100689.84;5106103;27;70597;-40
2023/05/01 12:59:58;;;;;;;;;;;;;;;34.92;53.40;100699.13;5090894;27;65924;-40
2023/05/01 13:02:41;;;;;;;;;;;;;;;34.91;53.60;100702.94;5118639;27;70026;-39
2023/05/01 13:05:11;;;;;;;;;;;;;;;34.89;53.32;100705.06;5120105;27;67454;-40